createdAt,value
2023-05-16T00:02:14.218Z,15.92
2023-05-16T00:05:21.980Z,15.96
2023-05-16T00:08:37.683Z,14.68
2023-05-16T00:16:29.726Z,13.87
2023-05-16T00:19:36.464Z,16.63
2023-05-16T00:22:44.917Z,15.60
2023-05-16T00:25:54.573Z,15.92
2023-05-16T00:29:00.394Z,16.73
2023-05-16T00:32:15.905Z,16.29
2023-05-16T00:35:24.054Z,15.62
2023-05-16T00:38:31.021Z,16.61
2023-05-16T00:41:40.345Z,17.30
2023-05-16T00:44:46.991Z,17.95
2023-05-16T00:47:55.263Z,17.69
2023-05-16T00:51:02.313Z,18.56
2023-05-16T00:54:09.862Z,15.39
2023-05-16T00:57:19.517Z,13.72
2023-05-16T01:00:26.109Z,12.57
2023-05-16T01:03:33.575Z,12.60
2023-05-16T01:06:39.988Z,12.44
2023-05-16T01:09:46.812Z,13.08
2023-05-16T01:13:14.623Z,11.74
2023-05-16T01:16:34.562Z,13.36
2023-05-16T01:20:07.207Z,13.84
2023-05-16T01:23:37.062Z,14.61
2023-05-16T01:26:47.230Z,13.26
2023-05-16T01:30:23.938Z,13.60
2023-05-16T01:33:31.300Z,15.26
2023-05-16T01:36:51.749Z,15.61
2023-05-16T01:40:15.666Z,16.22
2023-05-16T01:43:42.117Z,16.90
2023-05-16T01:46:52.296Z,16.42
2023-05-16T01:50:11.534Z,16.56
2023-05-16T01:53:31.233Z,16.49
2023-05-16T01:56:40.961Z,15.69
2023-05-16T01:59:52.240Z,14.40
2023-05-16T02:02:58.111Z,13.81
2023-05-16T02:06:08.117Z,15.74
2023-05-16T02:09:14.170Z,13.76
2023-05-16T02:12:24.843Z,14.09
2023-05-16T02:15:35.160Z,13.36
2023-05-16T02:18:42.881Z,14.48
2023-05-16T02:21:50.642Z,13.69
2023-05-16T02:24:57.694Z,14.08
2023-05-16T02:28:07.208Z,13.72
2023-05-16T02:31:16.661Z,14.63
2023-05-16T02:34:22.531Z,15.08
2023-05-16T02:37:32.294Z,15.04
2023-05-16T02:40:38.222Z,15.99
2023-05-16T02:43:46.904Z,16.65
2023-05-16T02:46:55.829Z,16.41
2023-05-16T02:50:02.547Z,17.89
2023-05-16T02:53:08.473Z,18.96
2023-05-16T02:56:15.238Z,18.97
2023-05-16T02:59:27.083Z,17.01
2023-05-16T03:02:36.441Z,17.86
2023-05-16T03:05:42.623Z,16.71
2023-05-16T03:08:49.627Z,17.20
2023-05-16T03:11:56.772Z,17.38
2023-05-16T03:15:10.552Z,16.49
2023-05-16T03:18:39.414Z,16.07
2023-05-16T03:21:46.521Z,17.14
2023-05-16T03:24:57.664Z,17.24
2023-05-16T03:28:04.658Z,17.63
2023-05-16T03:31:11.308Z,17.46
2023-05-16T03:34:21.197Z,18.57
2023-05-16T03:37:28.359Z,18.28
2023-05-16T03:40:35.736Z,18.43
2023-05-16T03:43:41.669Z,17.22
2023-05-16T03:47:02.181Z,17.11
2023-05-16T03:50:13.217Z,17.67
2023-05-16T03:53:21.758Z,16.63
2023-05-16T03:56:29.420Z,15.36
2023-05-16T03:59:36.495Z,14.97
2023-05-16T04:02:44.449Z,13.40
2023-05-16T04:05:56.493Z,14.87
2023-05-16T04:09:02.513Z,15.38
2023-05-16T04:12:10.416Z,15.39
2023-05-16T04:15:16.430Z,14.46
2023-05-16T04:18:23.119Z,14.24
2023-05-16T04:21:32.177Z,14.72
2023-05-16T04:24:38.948Z,14.43
2023-05-16T04:27:44.852Z,13.46
2023-05-16T04:30:52.081Z,13.69
2023-05-16T04:33:58.330Z,13.77
2023-05-16T04:37:14.517Z,14.58
2023-05-16T04:40:20.652Z,14.08
2023-05-16T04:43:30.677Z,15.05
2023-05-16T04:46:39.582Z,15.08
2023-05-16T04:49:46.333Z,16.40
2023-05-16T04:52:56.383Z,17.66
2023-05-16T04:56:06.165Z,17.86
2023-05-16T04:59:17.371Z,19.67
2023-05-16T05:02:24.343Z,22.23
2023-05-16T05:05:30.509Z,21.88
2023-05-16T05:08:41.591Z,21.24
2023-05-16T05:11:52.266Z,20.54
2023-05-16T05:14:59.172Z,20.10
2023-05-16T05:18:08.127Z,19.35
2023-05-16T05:21:15.261Z,19.13
2023-05-16T05:24:26.501Z,19.04
2023-05-16T05:27:33.242Z,19.16
2023-05-16T05:30:40.633Z,20.64
2023-05-16T05:33:48.985Z,20.19
2023-05-16T05:36:54.904Z,18.20
2023-05-16T05:40:04.656Z,18.94
2023-05-16T05:43:10.508Z,17.05
2023-05-16T05:46:20.088Z,16.51
2023-05-16T05:49:26.321Z,17.29
2023-05-16T05:52:33.193Z,16.86
2023-05-16T05:55:42.503Z,15.02
2023-05-16T05:58:49.412Z,15.03
2023-05-16T06:01:55.752Z,14.50
2023-05-16T06:05:02.382Z,14.88
2023-05-16T06:08:08.577Z,14.31
2023-05-16T06:11:17.826Z,15.51
2023-05-16T06:14:26.267Z,15.94
2023-05-16T06:17:33.034Z,16.00
2023-05-16T06:20:45.664Z,15.69
2023-05-16T06:24:12.758Z,14.75
2023-05-16T06:27:21.309Z,15.08
2023-05-16T06:30:28.324Z,15.04
2023-05-16T06:33:34.361Z,15.69
2023-05-16T06:36:41.129Z,16.67
2023-05-16T06:39:48.265Z,13.81
2023-05-16T06:42:58.900Z,9.98
2023-05-16T06:46:04.853Z,10.72
2023-05-16T06:49:12.996Z,10.52
2023-05-16T06:52:18.883Z,10.68
2023-05-16T06:55:26.013Z,10.48
2023-05-16T06:58:40.210Z,10.38
2023-05-16T07:01:47.148Z,10.03
2023-05-16T07:04:53.378Z,9.90
2023-05-16T07:08:01.025Z,9.40
2023-05-16T07:11:07.144Z,10.25
2023-05-16T07:14:16.597Z,9.97
2023-05-16T07:17:22.573Z,9.90
2023-05-16T07:20:29.438Z,9.97
2023-05-16T07:23:35.490Z,9.82
2023-05-16T07:26:42.253Z,9.90
2023-05-16T07:29:50.741Z,9.94
2023-05-16T07:32:58.418Z,9.66
2023-05-16T07:36:16.973Z,9.88
2023-05-16T07:39:27.337Z,9.55
2023-05-16T07:42:34.328Z,9.35
2023-05-16T07:45:46.739Z,10.17
2023-05-16T07:48:53.242Z,9.87
2023-05-16T07:52:00.126Z,10.35
2023-05-16T07:55:06.561Z,10.81
2023-05-16T07:58:13.701Z,10.16
2023-05-16T08:01:22.393Z,10.59
2023-05-16T08:04:29.275Z,11.13
2023-05-16T08:07:36.012Z,10.54
2023-05-16T08:10:42.783Z,11.58
2023-05-16T08:13:48.871Z,11.66
2023-05-16T08:16:58.275Z,11.55
2023-05-16T08:20:04.519Z,10.99
2023-05-16T08:23:11.791Z,10.68
2023-05-16T08:26:18.077Z,10.56
2023-05-16T08:29:24.974Z,10.38
2023-05-16T08:32:33.484Z,10.43
2023-05-16T08:35:40.375Z,10.39
2023-05-16T08:38:46.318Z,9.73
2023-05-16T08:41:53.618Z,10.68
2023-05-16T08:44:59.693Z,11.33
2023-05-16T08:48:14.437Z,11.08
2023-05-16T08:51:24.157Z,10.94
2023-05-16T08:54:33.477Z,10.31
2023-05-16T08:57:43.084Z,9.90
2023-05-16T09:00:51.053Z,10.21
2023-05-16T09:04:00.580Z,10.13
2023-05-16T09:07:07.804Z,10.07
2023-05-16T09:10:16.053Z,9.56
2023-05-16T09:13:22.809Z,9.96
2023-05-16T09:16:28.741Z,9.64
2023-05-16T09:19:49.226Z,9.91
2023-05-16T09:22:57.856Z,9.88
2023-05-16T09:26:05.006Z,9.74
2023-05-16T09:29:20.541Z,9.55
2023-05-16T09:32:28.359Z,9.44
2023-05-16T09:35:43.896Z,9.44
2023-05-16T09:38:55.613Z,9.58
2023-05-16T09:42:07.282Z,9.46
2023-05-16T09:45:17.466Z,10.12
2023-05-16T09:48:28.896Z,9.59
2023-05-16T09:51:39.581Z,9.62
2023-05-16T09:54:45.648Z,9.56
2023-05-16T09:57:53.013Z,10.27
2023-05-16T10:01:01.078Z,9.97
2023-05-16T10:04:14.473Z,10.66
2023-05-16T10:07:25.904Z,10.49
2023-05-16T10:10:36.591Z,10.18
2023-05-16T10:13:45.811Z,10.35
2023-05-16T10:16:55.230Z,10.46
2023-05-16T10:20:08.379Z,10.40
2023-05-16T10:23:22.873Z,10.06
2023-05-16T10:26:32.740Z,9.99
2023-05-16T10:29:54.064Z,9.85
2023-05-16T10:33:15.481Z,9.97
2023-05-16T10:36:23.963Z,9.78
2023-05-16T10:39:36.258Z,9.71
2023-05-16T10:42:46.913Z,9.81
2023-05-16T10:45:59.484Z,9.58
2023-05-16T10:49:24.101Z,9.63
2023-05-16T10:52:37.541Z,9.19
2023-05-16T10:56:03.709Z,8.82
2023-05-16T10:59:28.850Z,9.00
2023-05-16T11:02:45.080Z,8.94
2023-05-16T11:05:55.880Z,9.26
2023-05-16T11:09:10.614Z,9.70
2023-05-16T11:12:19.409Z,9.42
2023-05-16T11:15:30.704Z,9.73
2023-05-16T11:18:37.073Z,10.27
2023-05-16T11:22:12.047Z,9.93
2023-05-16T11:25:17.943Z,10.00
2023-05-16T11:28:30.460Z,9.95
2023-05-16T11:31:38.875Z,9.10
2023-05-16T11:34:46.933Z,9.09
2023-05-16T11:37:53.079Z,9.04
2023-05-16T11:41:07.606Z,8.22
2023-05-16T11:44:18.157Z,8.96
2023-05-16T11:47:25.081Z,8.87
2023-05-16T11:50:31.343Z,9.76
2023-05-16T11:53:38.945Z,9.18
2023-05-16T11:56:45.165Z,9.77
2023-05-16T11:59:56.568Z,9.34
2023-05-16T12:03:08.446Z,9.67
2023-05-16T12:06:15.265Z,9.88
2023-05-16T12:09:21.252Z,9.29
2023-05-16T12:12:28.006Z,10.25
2023-05-16T12:15:37.507Z,10.13
2023-05-16T12:18:44.992Z,10.20
2023-05-16T12:21:53.397Z,9.83
2023-05-16T12:25:31.092Z,8.89
2023-05-16T12:28:39.756Z,8.72
2023-05-16T12:31:49.373Z,8.85
2023-05-16T12:34:57.308Z,8.75
2023-05-16T12:38:08.028Z,9.42
2023-05-16T12:41:13.925Z,9.64
2023-05-16T12:44:24.995Z,9.13
2023-05-16T12:47:49.338Z,10.26
2023-05-16T12:50:56.691Z,10.88
2023-05-16T12:54:13.759Z,10.99
2023-05-16T12:57:20.554Z,11.50
2023-05-16T13:00:27.318Z,11.89
2023-05-16T13:03:44.890Z,12.71
2023-05-16T13:10:06.638Z,13.70
2023-05-16T13:13:17.047Z,12.76
2023-05-16T13:16:29.385Z,12.82
2023-05-16T13:19:38.255Z,13.08
2023-05-16T13:22:48.066Z,12.26
2023-05-16T13:25:55.737Z,11.97
2023-05-16T13:29:03.129Z,11.54
2023-05-16T13:32:11.017Z,11.43
2023-05-16T13:35:22.061Z,10.93
2023-05-16T13:38:47.183Z,11.56
2023-05-16T13:41:57.467Z,10.99
2023-05-16T13:45:16.577Z,10.84
2023-05-16T13:48:23.426Z,10.69
2023-05-16T13:51:32.055Z,11.37
2023-05-16T13:54:40.008Z,10.53
2023-05-16T13:57:46.052Z,10.10
2023-05-16T14:00:53.387Z,10.38
2023-05-16T14:03:59.895Z,10.81
2023-05-16T14:07:16.420Z,11.51
2023-05-16T14:10:25.349Z,11.35
2023-05-16T14:13:32.276Z,11.72
2023-05-16T14:16:38.406Z,12.36
2023-05-16T14:19:45.261Z,12.35
2023-05-16T14:22:58.271Z,12.24
2023-05-16T14:26:08.143Z,12.82
2023-05-16T14:29:13.966Z,13.35
2023-05-16T14:32:21.318Z,14.29
2023-05-16T14:35:28.108Z,14.58
2023-05-16T14:38:37.676Z,16.15
2023-05-16T14:41:43.720Z,18.27
2023-05-16T14:44:50.797Z,18.49
2023-05-16T14:47:56.846Z,19.77
2023-05-16T14:51:07.813Z,21.73
2023-05-16T14:54:16.738Z,22.39
2023-05-16T14:57:23.557Z,20.80
2023-05-16T15:00:52.115Z,19.85
2023-05-16T15:04:14.989Z,18.82
2023-05-16T15:07:36.337Z,20.22
2023-05-16T15:10:59.818Z,20.57
2023-05-16T15:14:20.719Z,19.79
2023-05-16T15:17:33.208Z,18.01
2023-05-16T15:20:43.120Z,18.77
2023-05-16T15:23:52.349Z,18.19
2023-05-16T15:27:08.016Z,17.50
2023-05-16T15:30:29.155Z,18.42
2023-05-16T15:33:35.257Z,19.26
2023-05-16T15:36:42.177Z,19.72
2023-05-16T15:39:48.098Z,16.79
2023-05-16T15:42:57.635Z,20.87
2023-05-16T15:46:03.632Z,22.01
2023-05-16T15:49:12.571Z,20.41
2023-05-16T15:52:20.039Z,20.18
2023-05-16T15:55:29.014Z,20.53
2023-05-16T15:58:37.939Z,20.25
2023-05-16T16:01:45.068Z,20.01
2023-05-16T16:04:52.088Z,20.31
2023-05-16T16:07:58.890Z,21.95
2023-05-16T16:11:05.289Z,23.70
2023-05-16T16:14:14.768Z,25.64
2023-05-16T16:17:20.650Z,23.91
2023-05-16T16:20:27.786Z,23.70
2023-05-16T16:23:35.045Z,22.89
2023-05-16T16:26:41.817Z,23.26
2023-05-16T16:30:05.287Z,22.04
2023-05-16T16:33:31.515Z,22.39
2023-05-16T16:36:54.358Z,23.50
2023-05-16T16:40:16.170Z,23.19
2023-05-16T16:43:37.641Z,21.88
2023-05-16T16:47:01.354Z,23.51
2023-05-16T16:50:23.992Z,22.96
2023-05-16T16:53:51.640Z,22.97
2023-05-16T16:57:12.905Z,22.96
2023-05-16T17:00:34.057Z,23.86
2023-05-16T17:03:57.727Z,24.55
2023-05-16T17:07:25.172Z,24.30
2023-05-16T17:10:48.423Z,25.19
2023-05-16T17:13:59.591Z,27.55
2023-05-16T17:17:05.577Z,28.29
2023-05-16T17:20:17.086Z,27.75
2023-05-16T17:23:23.510Z,26.09
2023-05-16T17:26:30.425Z,24.98
2023-05-16T17:29:39.823Z,25.43
2023-05-16T17:32:49.528Z,24.44
2023-05-16T17:35:58.406Z,25.20
2023-05-16T17:39:12.963Z,23.38
2023-05-16T17:42:19.610Z,22.75
2023-05-16T17:45:36.334Z,23.56
2023-05-16T17:48:45.379Z,26.33
2023-05-16T17:52:05.065Z,28.23
2023-05-16T17:55:25.725Z,30.59
2023-05-16T17:58:46.723Z,32.17
2023-05-16T18:02:10.101Z,30.28
2023-05-16T18:05:31.781Z,33.43
2023-05-16T18:09:00.807Z,34.60
2023-05-16T18:12:21.843Z,36.28
2023-05-16T18:15:45.599Z,28.74
2023-05-16T18:19:01.866Z,29.74
2023-05-16T18:22:10.454Z,52.33
2023-05-16T18:25:20.086Z,42.46
2023-05-16T18:28:26.526Z,30.84
2023-05-16T18:34:38.896Z,28.84
2023-05-16T18:37:46.121Z,29.92
2023-05-16T18:40:52.342Z,28.60
2023-05-16T18:43:59.297Z,28.45
2023-05-16T18:47:33.872Z,28.30
2023-05-16T18:50:41.173Z,28.16
2023-05-16T18:53:47.290Z,27.67
2023-05-16T18:57:10.451Z,28.40
2023-05-16T19:00:31.317Z,28.67
2023-05-16T19:04:45.162Z,30.27
2023-05-16T19:08:06.706Z,32.03
2023-05-16T19:11:27.992Z,28.80
2023-05-16T19:14:48.881Z,28.66
2023-05-16T19:17:57.754Z,28.82
2023-05-16T19:21:13.682Z,29.66
2023-05-16T19:24:21.049Z,29.58
2023-05-16T19:27:29.191Z,28.17
2023-05-16T19:30:38.112Z,29.02
2023-05-16T19:33:47.650Z,30.19
2023-05-16T19:36:59.237Z,31.31
2023-05-16T19:40:05.532Z,30.98
2023-05-16T19:43:13.146Z,30.29
2023-05-16T19:46:19.058Z,29.17
2023-05-16T19:49:29.226Z,29.59
2023-05-16T19:52:39.118Z,27.42
2023-05-16T19:56:04.365Z,25.06
2023-05-16T19:59:16.029Z,25.16
2023-05-16T20:02:28.738Z,22.75
2023-05-16T20:05:34.776Z,21.95
2023-05-16T20:08:46.679Z,22.55
2023-05-16T20:11:54.774Z,22.59
2023-05-16T20:15:01.834Z,22.37
2023-05-16T20:18:07.989Z,21.12
2023-05-16T20:21:16.606Z,20.35
2023-05-16T20:24:50.281Z,20.45
2023-05-16T20:28:11.815Z,20.35
2023-05-16T20:31:33.507Z,20.25
2023-05-16T20:34:55.224Z,20.88
2023-05-16T20:38:17.075Z,21.06
2023-05-16T20:41:40.434Z,21.10
2023-05-16T20:45:08.405Z,21.86
2023-05-16T20:48:31.530Z,20.87
2023-05-16T20:51:56.856Z,20.51
2023-05-16T20:55:19.464Z,16.15
2023-05-16T20:58:44.152Z,14.40
2023-05-16T21:02:06.094Z,15.15
2023-05-16T21:05:27.353Z,15.60
2023-05-16T21:08:34.586Z,15.94
2023-05-16T21:11:40.773Z,17.75
2023-05-16T21:14:50.507Z,20.23
2023-05-16T21:17:56.594Z,22.20
2023-05-16T21:21:03.387Z,22.82
2023-05-16T21:24:10.997Z,21.75
2023-05-16T21:27:26.986Z,18.25
2023-05-16T21:30:35.582Z,15.48
2023-05-16T21:33:52.484Z,13.07
2023-05-16T21:36:59.011Z,12.53
2023-05-16T21:40:25.224Z,12.36
2023-05-16T21:43:46.117Z,10.46
2023-05-16T21:47:09.844Z,10.01
2023-05-16T21:50:38.312Z,9.78
2023-05-16T21:53:59.359Z,9.11
2023-05-16T21:57:20.202Z,9.27
2023-05-16T22:00:28.234Z,9.60
2023-05-16T22:03:36.981Z,9.41
2023-05-16T22:06:43.933Z,9.36
2023-05-16T22:09:53.871Z,9.30
2023-05-16T22:13:00.604Z,9.20
2023-05-16T22:16:06.642Z,9.20
2023-05-16T22:19:30.560Z,8.95
2023-05-16T22:22:52.488Z,9.32
2023-05-16T22:26:16.107Z,8.91
2023-05-16T22:29:38.511Z,8.74
2023-05-16T22:32:59.477Z,9.55
2023-05-16T22:36:23.130Z,9.60
2023-05-16T22:39:44.103Z,9.67
2023-05-16T22:42:50.813Z,11.10
2023-05-16T22:45:56.853Z,11.21
2023-05-16T22:49:03.821Z,12.08
2023-05-16T22:52:12.528Z,12.49
2023-05-16T22:55:19.475Z,13.66
2023-05-16T22:58:25.608Z,13.63
2023-05-16T23:01:32.781Z,13.14
2023-05-16T23:04:53.794Z,12.75
2023-05-16T23:08:17.412Z,12.33
2023-05-16T23:11:38.307Z,11.41
2023-05-16T23:15:02.513Z,10.79
2023-05-16T23:18:23.592Z,10.45
2023-05-16T23:21:45.033Z,9.97
2023-05-16T23:25:09.922Z,9.90
2023-05-16T23:28:30.870Z,9.90
2023-05-16T23:31:51.769Z,9.68
2023-05-16T23:35:13.119Z,9.83
2023-05-16T23:38:34.054Z,9.62
2023-05-16T23:41:43.517Z,9.43
2023-05-16T23:44:49.331Z,9.55
2023-05-16T23:47:56.208Z,9.13
2023-05-16T23:51:02.357Z,9.27
2023-05-16T23:54:09.202Z,9.37
2023-05-16T23:57:17.832Z,9.59
